createdAt,value
2018-05-14T00:01:23.771Z,112.47
2018-05-14T00:03:52.363Z,116.67
2018-05-14T00:06:20.362Z,109.97
2018-05-14T00:08:48.468Z,115.03
2018-05-14T00:11:16.838Z,114.47
2018-05-14T00:13:44.965Z,163.17
2018-05-14T00:16:13.981Z,144.27
2018-05-14T00:18:42.096Z,131.80
2018-05-14T00:21:10.235Z,106.57
2018-05-14T00:23:38.365Z,139.73
2018-05-14T00:26:06.487Z,114.03
2018-05-14T00:28:34.650Z,117.77
2018-05-14T00:31:03.236Z,149.13
2018-05-14T00:33:31.579Z,126.93
2018-05-14T00:35:59.682Z,102.07
2018-05-14T00:38:27.813Z,84.47
2018-05-14T00:40:56.030Z,173.87
2018-05-14T00:43:24.234Z,86.33
2018-05-14T00:45:53.052Z,87.33
2018-05-14T00:48:21.664Z,115.27
2018-05-14T00:50:50.370Z,98.30
2018-05-14T00:53:18.555Z,126.67
2018-05-14T00:55:47.370Z,104.43
2018-05-14T00:58:15.600Z,103.77
2018-05-14T01:00:43.805Z,152.17
2018-05-14T01:03:12.049Z,135.73
2018-05-14T01:05:40.179Z,170.10
2018-05-14T01:08:08.329Z,116.80
2018-05-14T01:10:36.460Z,120.50
2018-05-14T01:13:05.213Z,146.53
2018-05-14T01:15:33.338Z,132.20
2018-05-14T01:18:01.492Z,93.10
2018-05-14T01:20:29.702Z,141.10
2018-05-14T01:22:58.780Z,126.63
2018-05-14T01:25:26.919Z,102.87
2018-05-14T01:27:55.665Z,129.30
2018-05-14T01:30:23.843Z,150.30
2018-05-14T01:32:51.953Z,121.00
2018-05-14T01:35:20.111Z,127.23
2018-05-14T01:37:48.231Z,180.00
2018-05-14T01:40:16.423Z,147.70
2018-05-14T01:42:44.553Z,132.90
2018-05-14T01:45:12.939Z,135.10
2018-05-14T01:47:41.054Z,168.13
2018-05-14T01:50:09.899Z,172.63
2018-05-14T01:52:38.028Z,126.53
2018-05-14T01:55:06.256Z,225.13
2018-05-14T01:57:34.460Z,274.53
2018-05-14T02:00:02.639Z,147.90
2018-05-14T02:02:30.796Z,230.00
2018-05-14T02:04:58.906Z,182.43
2018-05-14T02:07:27.410Z,134.93
2018-05-14T02:09:55.634Z,163.13
2018-05-14T02:12:23.844Z,175.93
2018-05-14T02:14:51.972Z,172.17
2018-05-14T02:17:20.512Z,121.23
2018-05-14T02:19:48.717Z,141.17
2018-05-14T02:22:16.959Z,162.10
2018-05-14T02:24:45.182Z,163.97
2018-05-14T02:27:13.373Z,161.57
2018-05-14T02:29:41.938Z,247.97
2018-05-14T02:32:10.906Z,224.97
2018-05-14T02:34:40.239Z,245.50
2018-05-14T02:37:08.352Z,231.47
2018-05-14T02:39:37.243Z,252.40
2018-05-14T02:42:05.439Z,230.40
2018-05-14T02:44:33.559Z,273.20
2018-05-14T02:47:06.279Z,165.47
2018-05-14T02:49:34.475Z,289.43
2018-05-14T02:52:02.693Z,265.47
2018-05-14T02:54:30.959Z,244.97
2018-05-14T02:56:59.237Z,378.83
2018-05-14T02:59:27.455Z,383.43
2018-05-14T03:01:56.716Z,278.53
2018-05-14T03:04:24.848Z,379.73
2018-05-14T03:06:53.064Z,256.80
2018-05-14T03:09:21.997Z,292.87
2018-05-14T03:11:50.117Z,386.40
2018-05-14T03:14:18.856Z,208.63
2018-05-14T03:16:46.984Z,257.03
2018-05-14T03:19:15.113Z,208.13
2018-05-14T03:21:43.250Z,205.83
2018-05-14T03:24:11.357Z,272.67
2018-05-14T03:26:39.478Z,318.23
2018-05-14T03:29:07.612Z,310.17
2018-05-14T03:31:35.724Z,187.17
2018-05-14T03:34:03.888Z,275.57
2018-05-14T03:36:32.718Z,185.83
2018-05-14T03:39:01.478Z,238.97
2018-05-14T03:41:29.596Z,241.97
2018-05-14T03:43:57.838Z,198.70
2018-05-14T03:46:26.458Z,283.07
2018-05-14T03:48:55.377Z,232.73
2018-05-14T03:51:23.582Z,323.27
2018-05-14T03:53:51.711Z,243.77
2018-05-14T03:56:21.083Z,360.87
2018-05-14T03:59:06.834Z,245.40
2018-05-14T04:01:52.818Z,289.43
2018-05-14T04:04:38.614Z,253.83
2018-05-14T04:07:06.765Z,259.10
2018-05-14T04:09:35.723Z,258.30
2018-05-14T04:12:03.867Z,416.50
2018-05-14T04:14:31.991Z,239.07
2018-05-14T04:17:00.159Z,418.77
2018-05-14T04:19:29.983Z,391.07
2018-05-14T04:21:58.192Z,343.57
2018-05-14T04:24:26.422Z,380.60
2018-05-14T04:26:54.605Z,321.40
2018-05-14T04:29:28.202Z,377.93
2018-05-14T04:32:00.892Z,240.17
2018-05-14T04:34:29.092Z,208.87
2018-05-14T04:36:57.985Z,259.83
2018-05-14T04:39:30.966Z,229.17
2018-05-14T04:41:59.090Z,222.37
2018-05-14T04:44:28.086Z,259.27
2018-05-14T04:46:56.623Z,283.27
2018-05-14T04:49:25.518Z,364.87
2018-05-14T04:51:53.678Z,435.43
2018-05-14T04:54:21.874Z,265.43
2018-05-14T04:56:50.751Z,305.80
2018-05-14T04:59:19.022Z,338.60
2018-05-14T05:01:47.093Z,231.83
2018-05-14T05:04:15.215Z,256.93
2018-05-14T05:06:43.327Z,270.83
2018-05-14T05:09:11.441Z,321.77
2018-05-14T05:11:39.689Z,301.83
2018-05-14T05:14:07.829Z,287.57
2018-05-14T05:16:35.956Z,243.40
2018-05-14T05:19:04.072Z,214.23
2018-05-14T05:21:33.077Z,189.87
2018-05-14T05:24:01.191Z,162.47
2018-05-14T05:26:29.319Z,188.37
2018-05-14T05:28:57.426Z,283.83
2018-05-14T05:31:25.556Z,214.97
2018-05-14T05:33:53.874Z,348.60
2018-05-14T05:36:22.038Z,264.57
2018-05-14T05:38:50.184Z,211.80
2018-05-14T05:41:18.388Z,252.37
2018-05-14T05:43:46.531Z,259.53
2018-05-14T05:46:14.662Z,178.50
2018-05-14T05:48:42.794Z,227.60
2018-05-14T05:51:10.929Z,204.87
2018-05-14T05:53:39.063Z,288.80
2018-05-14T05:56:07.938Z,279.70
2018-05-14T05:58:36.065Z,244.67
2018-05-14T06:01:04.195Z,217.43
2018-05-14T06:03:32.293Z,221.90
2018-05-14T06:06:00.411Z,198.93
2018-05-14T06:08:28.542Z,157.80
2018-05-14T06:10:56.660Z,173.03
2018-05-14T06:13:24.871Z,136.10
2018-05-14T06:15:53.099Z,110.73
2018-05-14T06:18:21.221Z,213.77
2018-05-14T06:20:49.342Z,233.63
2018-05-14T06:23:17.483Z,280.83
2018-05-14T06:25:46.321Z,293.77
2018-05-14T06:28:14.445Z,268.93
2018-05-14T06:30:42.579Z,244.83
2018-05-14T06:33:11.516Z,262.40
2018-05-14T06:35:40.317Z,361.23
2018-05-14T06:38:08.754Z,271.67
2018-05-14T06:40:36.872Z,315.37
2018-05-14T06:43:05.715Z,256.20
2018-05-14T06:45:33.831Z,185.37
2018-05-14T06:48:02.140Z,312.60
2018-05-14T06:50:30.872Z,254.07
2018-05-14T06:52:58.992Z,190.60
2018-05-14T06:55:27.145Z,187.13
2018-05-14T06:57:55.708Z,128.63
2018-05-14T07:00:23.814Z,221.47
2018-05-14T07:02:52.440Z,157.57
2018-05-14T07:05:21.314Z,136.23
2018-05-14T07:07:50.188Z,168.03
2018-05-14T07:10:18.382Z,156.80
2018-05-14T07:12:47.718Z,134.37
2018-05-14T07:15:15.870Z,106.70
2018-05-14T07:17:43.969Z,256.07
2018-05-14T07:20:12.161Z,172.87
2018-05-14T07:22:40.281Z,160.93
2018-05-14T07:25:08.406Z,232.60
2018-05-14T07:27:36.504Z,227.60
2018-05-14T07:30:04.657Z,177.73
2018-05-14T07:32:32.783Z,207.50
2018-05-14T07:35:01.131Z,264.77
2018-05-14T07:37:29.247Z,178.00
2018-05-14T07:39:57.376Z,187.63
2018-05-14T07:42:25.643Z,259.70
2018-05-14T07:44:53.832Z,264.73
2018-05-14T07:47:22.386Z,189.50
2018-05-14T07:49:50.487Z,226.73
2018-05-14T07:52:18.737Z,288.60
2018-05-14T07:54:46.922Z,163.10
2018-05-14T07:57:15.139Z,120.73
2018-05-14T07:59:43.333Z,222.27
2018-05-14T08:02:11.464Z,181.87
2018-05-14T08:04:39.589Z,208.87
2018-05-14T08:07:07.708Z,145.63
2018-05-14T08:09:35.822Z,125.57
2018-05-14T08:12:03.929Z,135.87
2018-05-14T08:14:32.873Z,158.90
2018-05-14T08:17:01.019Z,199.17
2018-05-14T08:19:29.143Z,186.87
2018-05-14T08:21:57.248Z,133.80
2018-05-14T08:24:25.368Z,170.40
2018-05-14T08:26:53.488Z,181.40
2018-05-14T08:29:21.613Z,248.73
2018-05-14T08:31:50.151Z,152.90
2018-05-14T08:34:18.263Z,183.43
2018-05-14T08:36:46.397Z,172.17
2018-05-14T08:39:14.519Z,106.67
2018-05-14T08:41:42.669Z,101.50
2018-05-14T08:44:10.859Z,149.73
2018-05-14T08:46:39.163Z,136.97
2018-05-14T08:49:07.426Z,144.20
2018-05-14T08:51:35.587Z,136.63
2018-05-14T08:54:03.748Z,73.97
2018-05-14T08:56:31.860Z,108.00
2018-05-14T08:58:59.979Z,122.50
2018-05-14T09:01:28.859Z,68.23
2018-05-14T09:03:57.013Z,89.67
2018-05-14T09:06:25.125Z,70.10
2018-05-14T09:21:48.266Z,57.13
2018-05-14T09:24:16.380Z,48.47
2018-05-14T09:26:44.507Z,91.40
2018-05-14T09:29:12.607Z,60.80
2018-05-14T09:31:41.496Z,53.57
2018-05-14T09:34:09.614Z,56.97
2018-05-14T09:36:38.499Z,87.40
2018-05-14T09:39:06.605Z,36.33
2018-05-14T09:41:34.720Z,42.23
2018-05-14T09:44:02.882Z,46.37
2018-05-14T09:46:31.196Z,45.37
2018-05-14T09:48:59.439Z,32.10
2018-05-14T09:51:27.616Z,42.67
2018-05-14T09:53:55.870Z,35.27
2018-05-14T09:56:24.136Z,53.47
2018-05-14T09:58:52.341Z,39.33
2018-05-14T10:01:20.457Z,24.77
2018-05-14T10:03:48.578Z,35.13
2018-05-14T10:06:16.700Z,37.07
2018-05-14T10:08:44.825Z,38.23
2018-05-14T10:11:13.045Z,33.93
2018-05-14T10:13:41.167Z,24.70
2018-05-14T10:16:09.314Z,26.43
2018-05-14T10:18:37.431Z,34.00
2018-05-14T10:21:05.992Z,25.83
2018-05-14T10:23:34.086Z,30.77
2018-05-14T10:26:02.265Z,44.67
2018-05-14T10:28:30.377Z,34.23
2018-05-14T10:30:58.506Z,44.20
2018-05-14T10:33:26.673Z,35.33
2018-05-14T10:35:55.127Z,29.30
2018-05-14T10:38:23.281Z,38.60
2018-05-14T10:40:51.403Z,27.97
2018-05-14T10:43:19.535Z,38.90
2018-05-14T10:45:48.413Z,22.60
2018-05-14T10:48:17.316Z,25.77
2018-05-14T10:50:46.246Z,20.10
2018-05-14T10:53:14.875Z,22.70
2018-05-14T10:55:43.044Z,27.00
2018-05-14T10:58:11.294Z,30.27
2018-05-14T11:00:39.522Z,26.53
2018-05-14T11:03:07.728Z,28.03
2018-05-14T11:05:35.915Z,26.30
2018-05-14T11:08:04.062Z,25.27
2018-05-14T11:10:32.260Z,25.20
2018-05-14T11:13:00.430Z,31.17
2018-05-14T11:15:29.319Z,27.63
2018-05-14T11:17:57.440Z,29.13
2018-05-14T11:20:26.332Z,25.97
2018-05-14T11:22:54.452Z,29.47
2018-05-14T11:25:22.671Z,30.67
2018-05-14T11:27:50.868Z,35.50
2018-05-14T11:30:18.981Z,31.87
2018-05-14T11:32:47.890Z,31.23
2018-05-14T11:35:16.010Z,26.73
2018-05-14T11:37:44.200Z,33.30
2018-05-14T11:40:12.479Z,50.70
2018-05-14T11:42:40.733Z,68.43
2018-05-14T11:45:08.946Z,42.40
2018-05-14T11:47:37.121Z,31.43
2018-05-14T11:50:05.211Z,32.13
2018-05-14T11:52:33.987Z,33.07
2018-05-14T11:55:02.111Z,30.20
2018-05-14T11:57:30.263Z,36.33
2018-05-14T11:59:58.488Z,31.13
2018-05-14T12:02:26.633Z,34.97
2018-05-14T12:04:54.766Z,29.03
2018-05-14T12:07:22.891Z,37.10
2018-05-14T12:09:51.493Z,31.20
2018-05-14T12:12:19.706Z,30.33
2018-05-14T12:14:47.821Z,30.17
2018-05-14T12:17:15.921Z,30.70
2018-05-14T12:19:44.067Z,27.90
2018-05-14T12:22:12.183Z,29.80
2018-05-14T12:24:40.289Z,29.80
2018-05-14T12:27:08.739Z,28.57
2018-05-14T12:29:36.836Z,31.83
2018-05-14T12:32:04.963Z,27.03
2018-05-14T12:34:33.055Z,26.63
2018-05-14T12:37:01.225Z,35.27
2018-05-14T12:39:29.465Z,31.43
2018-05-14T12:41:57.618Z,27.90
2018-05-14T12:44:25.850Z,28.87
2018-05-14T12:46:53.942Z,30.67
2018-05-14T12:49:22.060Z,29.17
2018-05-14T12:51:50.208Z,28.63
2018-05-14T12:54:18.290Z,26.17
2018-05-14T12:56:46.398Z,30.83
2018-05-14T12:59:14.498Z,29.37
2018-05-14T13:01:42.602Z,32.10
2018-05-14T13:04:10.741Z,29.67
2018-05-14T13:06:38.859Z,31.43
2018-05-14T13:09:07.732Z,45.77
2018-05-14T13:11:35.857Z,36.60
2018-05-14T13:14:04.023Z,32.13
2018-05-14T13:16:32.250Z,32.27
2018-05-14T13:19:01.129Z,34.03
2018-05-14T13:21:29.267Z,31.07
2018-05-14T13:23:57.370Z,26.93
2018-05-14T13:26:25.477Z,33.27
2018-05-14T13:28:53.593Z,30.47
2018-05-14T13:31:21.766Z,26.57
2018-05-14T13:33:49.941Z,30.67
2018-05-14T13:36:18.074Z,30.33
2018-05-14T13:38:46.368Z,25.60
2018-05-14T13:41:14.990Z,25.03
2018-05-14T13:43:43.090Z,26.03
2018-05-14T13:46:11.212Z,23.60
2018-05-14T13:48:39.335Z,20.40
2018-05-14T13:51:07.632Z,21.60
2018-05-14T13:53:35.746Z,22.53
2018-05-14T13:56:03.874Z,19.10
2018-05-14T13:58:31.977Z,20.43
2018-05-14T14:01:00.099Z,19.70
2018-05-14T14:03:28.209Z,18.73
2018-05-14T14:05:56.336Z,16.47
2018-05-14T14:08:24.453Z,17.50
2018-05-14T14:10:52.627Z,16.07
2018-05-14T14:13:21.035Z,15.40
2018-05-14T14:15:49.203Z,14.67
2018-05-14T14:18:18.137Z,11.03
2018-05-14T14:20:46.242Z,9.63
2018-05-14T14:23:14.420Z,9.40
2018-05-14T14:25:42.530Z,7.73
2018-05-14T14:28:11.225Z,8.70
2018-05-14T14:30:40.181Z,6.17
2018-05-14T14:33:08.836Z,4.23
2018-05-14T14:35:37.083Z,5.00
2018-05-14T14:38:05.936Z,4.00
2018-05-14T14:40:34.051Z,4.00
2018-05-14T14:43:02.165Z,2.10
2018-05-14T14:45:30.283Z,4.40
2018-05-14T14:47:58.418Z,2.20
2018-05-14T14:50:26.671Z,2.50
2018-05-14T14:52:54.790Z,2.20
2018-05-14T14:55:22.932Z,3.63
2018-05-14T14:57:51.119Z,2.87
2018-05-14T15:00:19.318Z,6.37
2018-05-14T15:02:47.430Z,6.73
2018-05-14T15:05:15.530Z,4.73
2018-05-14T15:07:43.661Z,7.00
2018-05-14T15:10:11.850Z,7.20
2018-05-14T15:12:39.956Z,6.30
2018-05-14T15:15:08.073Z,5.40
2018-05-14T15:17:36.306Z,4.77
2018-05-14T15:20:04.636Z,5.00
2018-05-14T15:22:32.769Z,5.67
2018-05-14T15:25:01.025Z,7.57
2018-05-14T15:27:29.301Z,3.30
2018-05-14T15:29:57.425Z,6.20
2018-05-14T15:32:25.690Z,3.60
2018-05-14T15:34:54.241Z,6.20
2018-05-14T15:37:22.415Z,4.97
2018-05-14T15:39:50.563Z,5.20
2018-05-14T15:42:18.685Z,2.60
2018-05-14T15:44:46.777Z,3.30
2018-05-14T15:47:14.891Z,3.37
2018-05-14T15:49:43.017Z,3.97
2018-05-14T15:52:11.123Z,4.90
2018-05-14T15:54:39.232Z,7.43
2018-05-14T15:57:07.342Z,4.93
2018-05-14T15:59:36.217Z,4.23
2018-05-14T16:02:04.361Z,2.73
2018-05-14T16:04:32.519Z,4.57
2018-05-14T16:07:00.656Z,2.80
2018-05-14T16:09:28.776Z,3.37
2018-05-14T16:11:56.894Z,3.37
2018-05-14T16:14:25.017Z,5.93
2018-05-14T16:16:53.201Z,1.97
2018-05-14T16:19:21.313Z,3.03
2018-05-14T16:21:49.429Z,2.23
2018-05-14T16:24:17.552Z,2.03
2018-05-14T16:26:46.413Z,4.50
2018-05-14T16:29:14.567Z,1.80
2018-05-14T16:31:42.681Z,5.57
2018-05-14T16:34:10.794Z,2.13
2018-05-14T16:36:38.940Z,1.43
2018-05-14T16:39:07.057Z,3.20
2018-05-14T16:41:35.174Z,4.27
2018-05-14T16:44:03.294Z,6.23
2018-05-14T16:46:31.415Z,4.73
2018-05-14T16:48:59.570Z,5.03
2018-05-14T16:51:27.765Z,2.07
2018-05-14T16:53:56.682Z,2.30
2018-05-14T16:56:24.807Z,3.23
2018-05-14T16:58:52.931Z,3.67
2018-05-14T17:01:21.041Z,2.20
2018-05-14T17:03:49.146Z,3.17
2018-05-14T17:06:17.291Z,1.23
2018-05-14T17:08:45.451Z,3.03
2018-05-14T17:11:13.675Z,2.27
2018-05-14T17:13:41.911Z,2.87
2018-05-14T17:16:10.046Z,5.30
2018-05-14T17:18:38.971Z,15.00
2018-05-14T17:21:07.147Z,3.00
2018-05-14T17:23:35.299Z,5.60
2018-05-14T17:26:03.400Z,4.27
2018-05-14T17:28:31.527Z,2.20
2018-05-14T17:30:59.677Z,3.13
2018-05-14T17:33:27.797Z,3.53
2018-05-14T17:35:55.967Z,7.40
2018-05-14T17:38:24.076Z,1.83
2018-05-14T17:40:56.166Z,12.70
2018-05-14T17:43:24.278Z,2.50
2018-05-14T17:45:52.371Z,4.13
2018-05-14T17:48:20.479Z,3.10
2018-05-14T17:50:48.569Z,2.17
2018-05-14T17:53:16.752Z,1.77
2018-05-14T17:55:44.854Z,2.27
2018-05-14T17:58:13.247Z,3.17
2018-05-14T18:00:41.472Z,7.00
2018-05-14T18:03:09.633Z,3.13
2018-05-14T18:05:37.725Z,4.43
2018-05-14T18:08:05.980Z,3.60
2018-05-14T18:10:34.174Z,3.80
2018-05-14T18:13:02.227Z,4.67
2018-05-14T18:15:30.363Z,3.33
2018-05-14T18:17:58.543Z,3.07
2018-05-14T18:20:26.593Z,3.43
2018-05-14T18:22:54.842Z,1.93
2018-05-14T18:25:28.439Z,4.33
2018-05-14T18:28:01.299Z,2.43
2018-05-14T18:30:29.916Z,4.37
2018-05-14T18:33:03.669Z,5.83
2018-05-14T18:35:37.554Z,6.13
2018-05-14T18:38:06.285Z,2.70
2018-05-14T18:40:34.413Z,2.20
2018-05-14T18:43:02.507Z,3.43
2018-05-14T18:45:31.731Z,3.07
2018-05-14T18:47:59.856Z,4.30
2018-05-14T18:50:27.963Z,2.20
2018-05-14T18:52:56.861Z,1.97
2018-05-14T18:55:25.620Z,1.77
2018-05-14T18:57:53.814Z,1.87
2018-05-14T19:00:22.696Z,2.37
2018-05-14T19:02:50.838Z,4.40
2018-05-14T19:05:19.676Z,4.60
2018-05-14T19:07:48.576Z,4.27
2018-05-14T19:10:22.157Z,3.43
2018-05-14T19:12:51.066Z,6.00
2018-05-14T19:15:24.756Z,3.03
2018-05-14T19:17:58.266Z,2.77
2018-05-14T19:20:26.372Z,2.50
2018-05-14T19:23:04.411Z,2.63
2018-05-14T19:25:32.631Z,2.30
2018-05-14T19:28:06.213Z,2.40
2018-05-14T19:30:34.275Z,2.20
2018-05-14T19:33:02.438Z,2.00
2018-05-14T19:35:35.968Z,3.40
2018-05-14T19:38:04.141Z,4.40
2018-05-14T19:40:37.725Z,3.60
2018-05-14T19:43:05.908Z,2.10
2018-05-14T19:45:34.036Z,2.03
2018-05-14T19:48:02.147Z,3.33
2018-05-14T19:50:31.123Z,2.87
2018-05-14T19:52:59.178Z,2.90
2018-05-14T19:55:27.355Z,2.13
2018-05-14T19:57:55.523Z,2.80
2018-05-14T20:00:23.641Z,4.37
2018-05-14T20:02:51.743Z,2.47
2018-05-14T20:05:19.874Z,2.23
2018-05-14T20:07:48.760Z,4.27
2018-05-14T20:10:17.706Z,2.33
2018-05-14T20:12:46.027Z,4.97
2018-05-14T20:15:14.094Z,3.10
2018-05-14T20:17:42.202Z,2.50
2018-05-14T20:20:10.396Z,2.50
2018-05-14T20:22:39.191Z,2.30
2018-05-14T20:25:07.324Z,3.33
2018-05-14T20:27:36.367Z,2.87
2018-05-14T20:30:04.499Z,2.40
2018-05-14T20:32:33.573Z,2.27
2018-05-14T20:35:02.454Z,2.87
2018-05-14T20:37:35.509Z,4.47
2018-05-14T20:40:03.627Z,4.70
2018-05-14T20:42:32.600Z,4.77
2018-05-14T20:45:00.762Z,3.47
2018-05-14T20:47:28.854Z,2.97
2018-05-14T20:49:56.974Z,2.80
2018-05-14T20:52:25.079Z,3.77
2018-05-14T21:07:58.897Z,10.30
2018-05-14T21:10:27.931Z,4.27
2018-05-14T21:12:56.837Z,3.67
2018-05-14T21:15:25.591Z,5.97
2018-05-14T21:17:53.698Z,4.07
2018-05-14T21:20:21.827Z,2.93
2018-05-14T21:22:49.934Z,2.67
2018-05-14T21:25:18.231Z,4.23
2018-05-14T21:27:48.231Z,7.27
2018-05-14T21:30:16.440Z,4.43
2018-05-14T21:32:45.461Z,3.83
2018-05-14T21:35:13.679Z,5.20
2018-05-14T21:37:41.969Z,3.20
2018-05-14T21:40:11.061Z,3.67
2018-05-14T21:42:39.283Z,5.70
2018-05-14T21:45:07.757Z,4.97
2018-05-14T21:47:36.521Z,5.03
2018-05-14T21:50:04.661Z,3.67
2018-05-14T21:52:32.751Z,5.50
2018-05-14T21:55:00.877Z,5.60
2018-05-14T21:57:28.979Z,3.20
2018-05-14T21:59:57.122Z,5.77
2018-05-14T22:02:25.347Z,4.00
2018-05-14T22:04:54.427Z,4.37
2018-05-14T22:07:23.107Z,3.83
2018-05-14T22:09:51.201Z,3.00
2018-05-14T22:12:19.330Z,4.13
2018-05-14T22:14:47.440Z,2.97
2018-05-14T22:17:15.624Z,6.50
2018-05-14T22:19:43.742Z,4.43
2018-05-14T22:22:11.864Z,6.07
2018-05-14T22:24:40.708Z,7.33
2018-05-14T22:27:08.833Z,4.10
2018-05-14T22:29:36.986Z,3.63
2018-05-14T22:32:05.090Z,6.30
2018-05-14T22:34:33.221Z,4.27
2018-05-14T22:37:01.550Z,4.07
2018-05-14T22:39:29.680Z,8.00
2018-05-14T22:41:57.852Z,3.43
2018-05-14T22:44:26.005Z,3.20
2018-05-14T22:46:58.752Z,4.20
2018-05-14T22:49:26.921Z,4.27
2018-05-14T22:51:55.794Z,3.33
2018-05-14T23:07:18.934Z,3.17
2018-05-14T23:09:47.700Z,3.73
2018-05-14T23:12:15.828Z,4.33
2018-05-14T23:14:44.687Z,5.17
2018-05-14T23:17:12.808Z,5.07
2018-05-14T23:19:41.497Z,4.20
2018-05-14T23:22:12.230Z,4.30
2018-05-14T23:24:40.552Z,6.53
2018-05-14T23:27:09.296Z,7.30
2018-05-14T23:29:37.407Z,8.00
2018-05-14T23:32:05.533Z,9.77
2018-05-14T23:34:33.668Z,8.27
2018-05-14T23:37:01.810Z,8.30
2018-05-14T23:39:29.942Z,8.80
2018-05-14T23:42:01.895Z,7.63
2018-05-14T23:44:30.030Z,7.83
2018-05-14T23:46:59.026Z,11.57
2018-05-14T23:49:27.150Z,8.97
2018-05-14T23:51:56.068Z,7.10
2018-05-14T23:54:24.284Z,8.87
2018-05-14T23:56:52.507Z,7.37
2018-05-14T23:59:20.799Z,6.63
